Time;durP1;ratioP1;P1;durP2;ratioP2;P2;SDS_P1;SDS_P2;PMS_P1;PMS_P2;Temp;Humidity;BMP_temperature;BMP_pressure;BME280_temperature;BME280_humidity;BME280_pressure;Samples;Min_cycle;Max_cycle;Signal;HPM_P1;HPM_P2
2023/04/22 00:01:01;;;;;;;890.37;795.50;;;7.10;99.90;;;;;;5055297;28;20456;-80
2023/04/22 00:03:29;;;;;;;876.00;781.27;;;7.10;99.90;;;;;;5053773;28;20994;-80
2023/04/22 00:05:56;;;;;;;894.50;799.00;;;7.10;99.90;;;;;;5055574;28;20479;-80
2023/04/22 00:08:24;;;;;;;901.07;804.40;;;7.20;99.90;;;;;;5035406;28;20540;-80
2023/04/22 00:10:52;;;;;;;889.20;792.50;;;7.20;99.90;;;;;;5035054;28;20452;-80
2023/04/22 00:13:19;;;;;;;909.87;812.23;;;7.20;99.90;;;;;;5054287;28;20477;-80
2023/04/22 00:15:46;;;;;;;899.67;802.70;;;7.20;99.90;;;;;;5053771;28;20900;-80
2023/04/22 00:18:14;;;;;;;901.97;804.13;;;7.20;99.90;;;;;;5053724;28;20463;-80
2023/04/22 00:20:42;;;;;;;895.77;798.87;;;7.20;99.90;;;;;;5055063;28;21115;-80
2023/04/22 00:23:11;;;;;;;902.63;805.70;;;7.30;99.90;;;;;;5054783;28;20574;-80
2023/04/22 00:25:39;;;;;;;895.53;798.33;;;7.30;99.90;;;;;;5053327;28;20471;-80
2023/04/22 00:28:08;;;;;;;891.67;794.70;;;7.40;99.90;;;;;;5054370;28;20451;-80
2023/04/22 00:30:35;;;;;;;901.33;804.80;;;7.40;99.90;;;;;;5053088;28;20835;-80
2023/04/22 00:33:03;;;;;;;894.80;797.63;;;7.40;99.90;;;;;;5054061;28;20498;-80
2023/04/22 00:35:30;;;;;;;892.93;794.97;;;7.40;99.90;;;;;;5054167;28;20901;-80
2023/04/22 00:37:58;;;;;;;901.10;802.93;;;7.40;99.90;;;;;;5054157;28;20614;-80
2023/04/22 00:40:24;;;;;;;887.33;789.80;;;7.40;99.90;;;;;;5054330;28;20446;-81
2023/04/22 00:42:51;;;;;;;911.30;813.30;;;7.50;99.90;;;;;;5054103;28;20447;-80
2023/04/22 00:45:21;;;;;;;892.50;787.53;;;7.50;99.90;;;;;;5052854;28;20533;-80
2023/04/22 00:47:48;;;;;;;890.63;788.90;;;7.50;99.90;;;;;;5053945;28;20462;-80
2023/04/22 00:50:15;;;;;;;911.60;812.33;;;7.60;99.90;;;;;;5053794;28;20535;-80
2023/04/22 00:52:42;;;;;;;925.23;824.53;;;7.60;99.90;;;;;;5053752;28;20525;-80
2023/04/22 00:55:10;;;;;;;917.70;817.60;;;7.60;99.90;;;;;;5053801;28;20456;-80
2023/04/22 00:57:38;;;;;;;912.10;810.20;;;7.70;99.90;;;;;;5053723;28;20505;-80
2023/04/22 01:00:08;;;;;;;904.77;804.70;;;7.60;99.90;;;;;;5053598;28;21142;-80
2023/04/22 01:02:37;;;;;;;905.20;804.80;;;7.70;99.90;;;;;;5054058;28;20460;-80
2023/04/22 01:05:07;;;;;;;904.57;802.67;;;7.70;99.90;;;;;;5053534;28;20471;-80
2023/04/22 01:07:34;;;;;;;898.67;798.00;;;7.70;99.90;;;;;;5053766;28;20482;-80
2023/04/22 01:10:04;;;;;;;902.60;802.60;;;7.70;99.90;;;;;;5053618;28;20530;-80
2023/04/22 01:12:31;;;;;;;905.77;805.27;;;7.60;99.90;;;;;;5053096;28;20975;-80
2023/04/22 01:15:01;;;;;;;909.83;809.27;;;7.60;99.90;;;;;;5053083;28;20467;-80
2023/04/22 01:17:30;;;;;;;905.23;804.97;;;7.70;99.90;;;;;;5053040;28;20443;-80
2023/04/22 01:19:59;;;;;;;904.70;797.57;;;7.70;99.90;;;;;;5052406;28;20459;-80
2023/04/22 01:22:28;;;;;;;905.60;795.03;;;7.60;99.90;;;;;;5053642;28;20447;-80
2023/04/22 01:24:56;;;;;;;901.20;801.40;;;7.60;99.90;;;;;;5053144;28;20483;-80
2023/04/22 01:27:23;;;;;;;914.53;814.20;;;7.70;99.90;;;;;;5052931;28;20491;-80
2023/04/22 01:29:51;;;;;;;908.07;807.40;;;7.60;99.90;;;;;;5053355;28;20478;-80
2023/04/22 01:32:18;;;;;;;919.23;819.10;;;7.60;99.90;;;;;;5053205;28;20453;-80
2023/04/22 01:34:46;;;;;;;924.30;823.10;;;7.60;99.90;;;;;;5052879;28;20834;-80
2023/04/22 01:37:13;;;;;;;917.80;816.63;;;7.60;99.90;;;;;;5052850;28;20452;-80
2023/04/22 01:39:41;;;;;;;924.53;824.23;;;7.60;99.90;;;;;;5053013;28;20451;-80
2023/04/22 01:42:09;;;;;;;913.43;806.20;;;7.70;99.90;;;;;;5052203;28;20455;-80
2023/04/22 01:44:36;;;;;;;919.93;819.07;;;7.70;99.90;;;;;;5052793;28;20530;-80
2023/04/22 01:47:04;;;;;;;924.13;824.63;;;7.60;99.90;;;;;;5052243;28;20543;-80
2023/04/22 01:49:31;;;;;;;911.83;812.70;;;7.60;99.90;;;;;;5053074;28;20451;-80
2023/04/22 01:51:58;;;;;;;917.30;817.23;;;7.50;99.90;;;;;;5053019;28;20478;-80
2023/04/22 01:54:25;;;;;;;918.77;806.07;;;7.50;99.90;;;;;;5052674;28;20479;-81
2023/04/22 01:57:00;;;;;;;923.13;823.17;;;7.60;99.90;;;;;;5052433;28;20457;-80
2023/04/22 01:59:29;;;;;;;911.50;812.17;;;7.60;99.90;;;;;;5052580;28;20455;-80
2023/04/22 02:01:55;;;;;;;915.13;815.20;;;7.60;99.90;;;;;;5052439;28;21018;-81
2023/04/22 02:04:25;;;;;;;916.03;815.80;;;7.60;99.90;;;;;;5052452;28;20478;-80
2023/04/22 02:06:52;;;;;;;927.27;827.50;;;7.50;99.90;;;;;;5052339;28;20477;-80
2023/04/22 02:09:19;;;;;;;921.87;822.47;;;7.50;99.90;;;;;;5051183;28;20959;-81
2023/04/22 02:11:46;;;;;;;931.40;832.33;;;7.50;99.90;;;;;;5052367;28;20802;-81
2023/04/22 02:14:13;;;;;;;930.10;831.63;;;7.50;99.90;;;;;;5052589;28;20476;-80
2023/04/22 02:16:43;;;;;;;924.40;825.37;;;7.40;99.90;;;;;;5052060;28;20444;-81
2023/04/22 02:19:10;;;;;;;910.67;811.27;;;7.50;99.90;;;;;;5052559;28;20490;-80
2023/04/22 02:21:39;;;;;;;924.37;825.17;;;7.60;99.90;;;;;;5067741;28;20999;-80
2023/04/22 02:24:07;;;;;;;925.57;826.30;;;7.60;99.90;;;;;;5052074;28;20476;-80
2023/04/22 02:26:34;;;;;;;914.13;813.37;;;7.70;99.90;;;;;;5051645;28;20475;-81
2023/04/22 02:29:01;;;;;;;912.47;813.53;;;7.70;99.90;;;;;;5052584;28;20497;-80
2023/04/22 02:31:30;;;;;;;918.33;820.57;;;7.80;99.90;;;;;;5052287;28;20828;-80
2023/04/22 02:33:58;;;;;;;902.93;804.33;;;7.90;99.90;;;;;;5052244;28;20490;-80
2023/04/22 02:36:26;;;;;;;906.03;807.93;;;7.90;99.90;;;;;;5051527;28;20450;-81
2023/04/22 02:38:53;;;;;;;888.57;790.20;;;8.00;99.90;;;;;;5050803;28;20459;-80
2023/04/22 02:41:20;;;;;;;897.10;799.40;;;7.90;99.90;;;;;;5052165;28;20531;-81
2023/04/22 02:43:47;;;;;;;901.37;803.43;;;7.90;99.90;;;;;;5052022;28;20986;-81
2023/04/22 02:46:16;;;;;;;899.53;801.20;;;7.80;99.90;;;;;;5051482;28;20503;-81
2023/04/22 02:48:43;;;;;;;903.53;804.50;;;7.90;99.90;;;;;;5051387;28;20458;-80
2023/04/22 02:51:11;;;;;;;910.33;810.83;;;8.00;99.90;;;;;;5050619;28;20505;-80
2023/04/22 02:53:40;;;;;;;913.17;812.73;;;8.00;99.90;;;;;;5050994;28;20892;-80
2023/04/22 02:56:08;;;;;;;913.10;813.50;;;8.10;99.90;;;;;;5051234;28;20443;-80
2023/04/22 02:58:35;;;;;;;905.53;805.30;;;8.20;99.90;;;;;;5051710;28;20447;-81
2023/04/22 03:01:03;;;;;;;921.90;821.93;;;8.20;99.90;;;;;;5051806;28;20498;-80
2023/04/22 03:03:30;;;;;;;895.43;796.03;;;8.20;99.90;;;;;;5051408;28;20566;-80
2023/04/22 03:05:58;;;;;;;910.70;810.73;;;8.20;99.90;;;;;;5051334;28;21171;-80
2023/04/22 03:08:27;;;;;;;922.50;822.90;;;8.20;99.90;;;;;;5052055;28;20451;-80
2023/04/22 03:10:53;;;;;;;921.93;821.67;;;8.20;99.90;;;;;;5051270;28;20543;-80
2023/04/22 03:13:20;;;;;;;938.57;838.07;;;8.40;99.90;;;;;;5051395;28;20841;-80
2023/04/22 03:15:47;;;;;;;924.40;824.23;;;8.30;99.90;;;;;;5051754;28;20440;-80
2023/04/22 03:18:14;;;;;;;908.47;807.87;;;8.40;99.90;;;;;;5051502;28;20452;-80
2023/04/22 03:20:41;;;;;;;911.90;812.03;;;8.40;99.90;;;;;;5051472;28;20548;-80
2023/04/22 03:23:12;;;;;;;915.60;814.77;;;8.50;99.90;;;;;;5050257;28;20479;-81
2023/04/22 03:25:41;;;;;;;936.50;836.00;;;8.50;99.90;;;;;;5051465;28;20503;-80
2023/04/22 03:28:10;;;;;;;923.13;822.43;;;8.40;99.90;;;;;;5051313;28;20455;-80
2023/04/22 03:30:37;;;;;;;901.93;802.13;;;8.40;99.90;;;;;;5045515;28;20453;-81
2023/04/22 03:33:04;;;;;;;925.13;825.70;;;8.40;99.90;;;;;;5031750;28;20478;-81
2023/04/22 03:35:32;;;;;;;918.20;818.77;;;8.40;99.90;;;;;;5031767;28;20990;-81
2023/04/22 03:37:59;;;;;;;914.37;815.47;;;8.40;99.90;;;;;;5049910;28;20452;-81
2023/04/22 03:40:26;;;;;;;913.30;814.77;;;8.40;99.90;;;;;;5050985;28;20473;-81
2023/04/22 03:42:54;;;;;;;911.30;812.93;;;8.40;99.90;;;;;;5050769;28;20951;-80
2023/04/22 03:45:22;;;;;;;900.27;801.70;;;8.40;99.90;;;;;;5051224;28;20475;-81
2023/04/22 03:47:49;;;;;;;897.27;794.77;;;8.40;99.90;;;;;;5050941;28;20973;-82
2023/04/22 03:50:16;;;;;;;890.83;792.07;;;8.30;99.90;;;;;;5047092;28;20465;-80
2023/04/22 03:52:43;;;;;;;879.73;782.07;;;8.30;99.90;;;;;;5050528;28;20458;-80
2023/04/22 03:55:12;;;;;;;896.60;797.83;;;8.30;99.90;;;;;;5050993;28;20494;-81
2023/04/22 03:57:40;;;;;;;900.23;800.37;;;8.30;99.90;;;;;;5050857;28;20978;-81
2023/04/22 04:00:09;;;;;;;879.00;768.07;;;8.40;99.90;;;;;;5050886;28;20451;-81
2023/04/22 04:02:37;;;;;;;881.57;783.77;;;8.40;99.90;;;;;;5030521;28;20452;-81
2023/04/22 04:05:05;;;;;;;889.23;785.17;;;8.40;99.90;;;;;;5036717;28;20564;-81
2023/04/22 04:07:31;;;;;;;884.83;788.03;;;8.40;99.90;;;;;;5054607;28;20451;-80
2023/04/22 04:09:58;;;;;;;884.40;771.53;;;8.40;99.90;;;;;;5054624;28;20541;-80
2023/04/22 04:12:26;;;;;;;873.00;766.57;;;8.50;99.90;;;;;;5055056;28;20502;-81
2023/04/22 04:14:53;;;;;;;878.03;751.70;;;8.50;99.90;;;;;;5054285;28;21022;-83
2023/04/22 04:17:24;;;;;;;872.70;767.60;;;8.50;99.90;;;;;;5035319;28;20455;-82
2023/04/22 04:19:51;;;;;;;878.63;773.53;;;8.50;99.90;;;;;;5034646;28;20448;-80
2023/04/22 04:22:18;;;;;;;863.07;766.73;;;8.50;99.90;;;;;;5034554;28;20991;-81
2023/04/22 04:24:58;;;;;;;867.10;771.80;;;8.50;99.90;;;;;;5034307;28;20503;-81
2023/04/22 04:27:25;;;;;;;876.87;781.00;;;8.50;99.90;;;;;;5033907;28;20479;-81
2023/04/22 04:29:54;;;;;;;863.07;767.47;;;8.50;99.90;;;;;;5034162;28;20459;-81
2023/04/22 04:32:23;;;;;;;861.87;766.03;;;8.60;99.90;;;;;;5034573;28;20484;-80
2023/04/22 04:34:51;;;;;;;854.00;741.20;;;8.60;99.90;;;;;;5034221;28;20991;-81
2023/04/22 04:37:18;;;;;;;853.97;753.43;;;8.60;99.90;;;;;;5034181;28;20448;-80
2023/04/22 04:39:45;;;;;;;847.93;729.47;;;8.60;99.90;;;;;;5034041;28;20456;-81
2023/04/22 04:42:13;;;;;;;850.70;725.27;;;8.60;99.90;;;;;;5034180;28;20511;-80
2023/04/22 04:44:41;;;;;;;849.67;739.43;;;8.60;99.90;;;;;;5038048;28;20467;-81
2023/04/22 04:47:08;;;;;;;855.73;761.80;;;8.60;99.90;;;;;;5053409;28;20480;-81
2023/04/22 04:49:39;;;;;;;858.83;764.17;;;8.50;99.90;;;;;;5053695;28;20448;-81
2023/04/22 04:52:06;;;;;;;868.53;774.00;;;8.40;99.90;;;;;;5053698;28;20447;-81
2023/04/22 04:54:33;;;;;;;898.70;804.73;;;8.40;99.90;;;;;;5053193;28;20487;-80
2023/04/22 04:57:00;;;;;;;887.40;793.53;;;8.40;99.90;;;;;;5053535;28;20453;-80
2023/04/22 04:59:28;;;;;;;896.60;802.27;;;8.50;99.90;;;;;;5053527;28;21164;-81
2023/04/22 05:01:54;;;;;;;902.07;807.17;;;8.50;99.90;;;;;;5053457;28;20526;-81
2023/04/22 05:04:22;;;;;;;906.77;811.37;;;8.60;99.90;;;;;;5053159;28;20467;-81
2023/04/22 05:06:51;;;;;;;878.17;783.97;;;8.60;99.90;;;;;;5053141;28;20538;-81
2023/04/22 05:09:20;;;;;;;871.27;778.27;;;8.70;99.90;;;;;;5053454;28;20448;-81
2023/04/22 05:11:47;;;;;;;884.47;791.83;;;8.80;99.90;;;;;;5054060;28;20452;-81
2023/04/22 05:14:14;;;;;;;895.37;801.83;;;8.90;99.90;;;;;;5053269;28;20478;-81
2023/04/22 05:16:51;;;;;;;878.40;786.10;;;8.90;99.90;;;;;;5052432;28;20475;-81
2023/04/22 05:19:20;;;;;;;881.90;789.07;;;9.00;99.90;;;;;;5053276;28;20459;-81
2023/04/22 05:21:47;;;;;;;865.80;774.20;;;9.20;99.90;;;;;;5053439;28;20970;-81
2023/04/22 05:24:15;;;;;;;873.23;781.77;;;9.20;99.90;;;;;;5053229;28;20474;-81
2023/04/22 05:26:42;;;;;;;870.20;779.47;;;9.30;99.90;;;;;;5052904;28;20473;-81
2023/04/22 05:29:09;;;;;;;877.43;785.83;;;9.40;99.90;;;;;;5052688;28;20447;-81
2023/04/22 05:31:38;;;;;;;862.03;771.50;;;9.40;99.90;;;;;;5052538;28;20447;-80
2023/04/22 05:34:05;;;;;;;879.97;789.37;;;9.40;99.90;;;;;;5035108;28;21208;-81
2023/04/22 05:36:32;;;;;;;868.43;779.60;;;9.50;99.90;;;;;;5052960;28;20477;-81
2023/04/22 05:39:01;;;;;;;870.03;782.27;;;9.70;99.90;;;;;;5044403;28;20456;-81
2023/04/22 05:41:29;;;;;;;883.87;796.50;;;9.80;99.90;;;;;;5053521;28;20512;-81
2023/04/22 05:43:56;;;;;;;874.20;790.30;;;10.00;99.90;;;;;;5048810;28;21139;-81
2023/04/22 05:46:23;;;;;;;844.37;765.17;;;10.20;99.90;;;;;;5043912;28;20557;-82
2023/04/22 05:48:51;;;;;;;819.93;744.03;;;10.30;99.90;;;;;;5035984;28;20484;-81
2023/04/22 05:51:18;;;;;;;822.17;746.10;;;10.40;99.90;;;;;;5050865;28;20465;-81
2023/04/22 05:53:45;;;;;;;808.23;734.67;;;10.30;99.90;;;;;;5049674;28;20577;-81
2023/04/22 05:56:15;;;;;;;800.33;727.47;;;10.30;99.90;;;;;;5050643;28;20963;-81
2023/04/22 05:58:43;;;;;;;806.63;734.00;;;10.30;99.90;;;;;;5050819;28;20958;-81
2023/04/22 06:01:10;;;;;;;787.90;716.33;;;10.30;99.90;;;;;;5051795;28;20447;-81
2023/04/22 06:03:37;;;;;;;792.60;721.40;;;10.40;99.90;;;;;;5051307;28;20950;-81
2023/04/22 06:06:05;;;;;;;787.40;715.83;;;10.40;99.90;;;;;;5050323;28;20467;-82
2023/04/22 06:08:32;;;;;;;784.60;714.40;;;10.50;99.90;;;;;;5047102;28;20501;-82
2023/04/22 06:11:02;;;;;;;782.00;712.60;;;10.60;99.90;;;;;;5051278;28;20822;-81
2023/04/22 06:13:30;;;;;;;784.27;717.13;;;10.70;99.90;;;;;;5051005;28;20499;-81
2023/04/22 06:15:58;;;;;;;774.67;709.60;;;10.70;99.90;;;;;;5051335;28;20451;-82
2023/04/22 06:18:25;;;;;;;773.87;710.73;;;10.80;99.90;;;;;;5051619;28;20453;-82
2023/04/22 06:20:53;;;;;;;779.40;715.93;;;10.80;99.90;;;;;;5040076;28;20447;-82
2023/04/22 06:23:20;;;;;;;779.27;715.43;;;10.90;99.90;;;;;;5050500;28;20873;-82
2023/04/22 06:25:47;;;;;;;779.90;717.83;;;11.10;99.90;;;;;;5050482;28;20455;-82
2023/04/22 06:28:14;;;;;;;777.50;716.23;;;11.20;99.90;;;;;;5050079;28;20458;-82
2023/04/22 06:30:41;;;;;;;759.73;700.70;;;11.20;99.90;;;;;;5050043;28;20448;-82
2023/04/22 06:33:09;;;;;;;769.30;711.90;;;11.40;99.90;;;;;;5031868;28;20472;-82
2023/04/22 06:35:36;;;;;;;774.80;718.50;;;11.40;99.90;;;;;;5049418;28;20455;-81
2023/04/22 06:38:03;;;;;;;778.90;723.10;;;11.50;99.90;;;;;;5050607;28;20448;-81
2023/04/22 06:40:30;;;;;;;769.97;717.87;;;11.60;99.90;;;;;;5049002;28;20458;-82
2023/04/22 06:43:01;;;;;;;764.03;713.50;;;11.70;99.90;;;;;;5050762;28;20458;-81
2023/04/22 06:45:28;;;;;;;745.50;697.50;;;11.80;99.90;;;;;;5048743;28;20832;-82
2023/04/22 06:47:54;;;;;;;741.60;695.00;;;11.90;99.90;;;;;;5050684;28;20475;-82
2023/04/22 06:50:25;;;;;;;732.20;687.30;;;12.10;99.90;;;;;;5051298;28;20455;-82
2023/04/22 06:52:52;;;;;;;714.80;671.80;;;12.20;99.90;;;;;;5050812;28;20463;-82
2023/04/22 06:55:19;;;;;;;700.60;660.53;;;12.40;99.90;;;;;;5051228;28;20463;-82
2023/04/22 06:57:46;;;;;;;667.50;634.53;;;12.50;99.90;;;;;;5049978;28;20448;-82
2023/04/22 07:00:14;;;;;;;553.10;531.27;;;12.60;99.90;;;;;;5051278;28;20452;-82
2023/04/22 07:02:41;;;;;;;425.97;411.47;;;12.60;99.90;;;;;;5046677;28;20462;-82
2023/04/22 07:05:08;;;;;;;381.47;368.93;;;12.70;99.90;;;;;;5049127;28;20451;-82
2023/04/22 07:07:36;;;;;;;418.70;404.87;;;12.70;99.90;;;;;;5029552;28;20467;-82
2023/04/22 07:10:09;;;;;;;478.20;461.57;;;12.70;99.90;;;;;;5043807;28;20457;-82
2023/04/22 07:12:44;;;;;;;474.30;457.87;;;12.80;99.90;;;;;;5148505;23;20481;-82
2023/04/22 07:15:11;;;;;;;456.93;440.10;;;12.90;99.90;;;;;;5060100;28;20504;-81
2023/04/22 07:17:38;;;;;;;449.60;434.47;;;13.00;99.90;;;;;;5058694;28;20458;-82
2023/04/22 07:20:06;;;;;;;376.17;364.07;;;13.10;99.90;;;;;;5058562;28;20846;-83
2023/04/22 07:22:33;;;;;;;417.60;403.50;;;13.30;99.90;;;;;;5064849;28;20446;-89
2023/04/22 07:25:01;;;;;;;323.07;312.63;;;13.40;99.90;;;;;;5069317;28;20546;-89
2023/04/22 07:27:45;;;;;;;115.13;110.60;;;13.50;99.90;;;;;;5052374;28;20561;-86
2023/04/22 07:30:13;;;;;;;146.47;141.27;;;13.50;99.90;;;;;;5056286;28;20466;-92
2023/04/22 07:32:40;;;;;;;138.93;133.63;;;13.80;99.90;;;;;;5055299;28;20466;-93
2023/04/22 07:35:15;;;;;;;145.03;139.57;;;14.10;99.90;;;;;;5065384;28;20462;-91
2023/04/22 07:37:42;;;;;;;18.13;16.93;;;14.40;99.90;;;;;;5074778;28;20449;-93
2023/04/22 07:40:15;;;;;;;14.77;13.47;;;14.50;99.90;;;;;;5069347;28;20486;-92
2023/04/22 07:42:42;;;;;;;19.23;17.47;;;14.60;99.90;;;;;;5058168;28;20455;-91
2023/04/22 07:45:42;;;;;;;13.90;8.53;;;14.70;99.90;;;;;;5062429;28;20453;-82
2023/04/22 07:48:09;;;;;;;7.87;6.27;;;14.90;99.90;;;;;;5070457;28;20494;-91
2023/04/22 07:50:42;;;;;;;8.60;6.20;;;15.10;99.90;;;;;;5063413;28;20447;-86
2023/04/22 07:53:10;;;;;;;11.60;8.63;;;15.30;99.90;;;;;;5055588;28;20471;-87
2023/04/22 07:55:38;;;;;;;10.67;5.53;;;15.70;99.90;;;;;;5055244;28;20526;-85
2023/04/22 07:58:06;;;;;;;8.60;5.63;;;16.00;99.90;;;;;;5055053;28;21023;-87
2023/04/22 08:00:33;;;;;;;6.70;4.07;;;16.20;99.90;;;;;;5055671;28;20444;-87
2023/04/22 08:03:00;;;;;;;8.20;4.37;;;16.40;99.90;;;;;;5061378;28;20466;-87
2023/04/22 08:05:29;;;;;;;7.17;4.23;;;16.60;99.90;;;;;;5071986;28;20448;-87
2023/04/22 08:07:56;;;;;;;7.67;4.30;;;16.70;99.90;;;;;;5068406;28;20874;-87
2023/04/22 08:10:23;;;;;;;8.17;4.57;;;16.70;99.90;;;;;;5056018;28;20454;-91
2023/04/22 08:12:52;;;;;;;12.33;4.90;;;16.90;99.90;;;;;;5058791;28;20447;-92
2023/04/22 08:15:22;;;;;;;7.40;4.30;;;17.10;99.90;;;;;;5058306;28;20530;-90
2023/04/22 08:17:51;;;;;;;7.40;4.43;;;17.20;99.90;;;;;;5062156;28;20472;-92
2023/04/22 08:20:18;;;;;;;7.03;4.50;;;17.50;99.90;;;;;;5070044;28;20469;-91
2023/04/22 08:22:45;;;;;;;7.50;4.23;;;17.80;99.90;;;;;;5070075;28;20452;-91
2023/04/22 08:25:13;;;;;;;9.20;4.43;;;18.10;99.90;;;;;;5063554;28;20475;-91
2023/04/22 08:27:39;;;;;;;8.17;4.07;;;18.40;99.90;;;;;;5062366;28;20440;-92
2023/04/22 08:30:10;;;;;;;7.70;3.53;;;18.60;99.90;;;;;;5075325;28;20475;-93
2023/04/22 08:32:37;;;;;;;7.27;4.57;;;18.70;99.70;;;;;;5071686;28;20871;-92
2023/04/22 08:35:04;;;;;;;9.40;4.23;;;18.60;99.90;;;;;;5077634;28;20554;-92
2023/04/22 08:37:31;;;;;;;7.40;4.30;;;18.60;99.40;;;;;;5063770;28;20480;-92
2023/04/22 08:39:58;;;;;;;8.70;3.80;;;18.70;98.60;;;;;;5071657;28;20453;-92
2023/04/22 08:42:26;;;;;;;7.03;3.83;;;19.00;98.50;;;;;;5078154;28;20496;-91
2023/04/22 08:44:53;;;;;;;6.50;3.70;;;19.20;97.60;;;;;;5063738;28;20467;-93
2023/04/22 08:47:24;;;;;;;6.50;3.53;;;19.80;96.40;;;;;;5064591;28;20448;-92
2023/04/22 08:49:55;;;;;;;6.17;3.37;;;20.00;95.10;;;;;;5073510;28;20460;-90
2023/04/22 08:52:22;;;;;;;9.20;3.30;;;20.10;95.10;;;;;;5063921;28;20540;-93
2023/04/22 08:54:50;;;;;;;5.97;3.00;;;20.20;91.80;;;;;;5058943;28;20559;-92
2023/04/22 08:57:18;;;;;;;6.77;3.30;;;20.10;89.50;;;;;;5058848;28;20475;-96
2023/04/22 08:59:46;;;;;;;5.60;2.70;;;20.10;91.70;;;;;;5060014;28;20461;-89
2023/04/22 09:02:19;;;;;;;11.83;3.10;;;20.00;87.80;;;;;;5055749;28;20455;-91
2023/04/22 09:04:52;;;;;;;8.17;2.90;;;20.10;84.10;;;;;;5056804;28;20759;-88
2023/04/22 09:07:24;;;;;;;5.70;2.20;;;20.20;88.30;;;;;;5057669;28;20456;-91
2023/04/22 09:09:56;;;;;;;5.10;2.40;;;20.20;86.30;;;;;;5064860;28;20818;-89
2023/04/22 09:15:03;;;;;;;6.07;2.60;;;20.40;81.50;;;;;;5960667;23;20863;-92
2023/04/22 09:17:32;;;;;;;6.63;2.30;;;20.30;75.30;;;;;;5080373;28;20476;-95
2023/04/22 09:20:01;;;;;;;5.17;2.30;;;20.90;80.90;;;;;;5078450;28;20459;-95
2023/04/22 09:22:29;;;;;;;8.33;2.30;;;21.10;79.20;;;;;;5079541;28;20545;-95
2023/04/22 09:24:56;;;;;;;5.10;2.20;;;21.40;77.60;;;;;;5064993;28;20470;-93
2023/04/22 09:27:25;;;;;;;5.23;2.20;;;21.90;71.80;;;;;;5076259;28;20452;-94
2023/04/22 09:29:52;;;;;;;8.77;2.83;;;21.90;70.60;;;;;;5060734;28;20816;-92
2023/04/22 09:32:19;;;;;;;4.57;1.60;;;22.00;68.40;;;;;;5075405;28;20827;-91
2023/04/22 09:34:51;;;;;;;11.13;2.40;;;21.60;64.60;;;;;;5065476;28;20473;-90
2023/04/22 09:37:25;;;;;;;5.37;2.30;;;21.50;58.80;;;;;;5052483;28;20485;-84
2023/04/22 09:39:53;;;;;;;5.13;2.10;;;21.30;58.00;;;;;;5067834;28;20824;-91
2023/04/22 09:42:22;;;;;;;5.97;2.30;;;21.30;57.40;;;;;;5068373;28;20823;-89
2023/04/22 09:44:51;;;;;;;9.30;1.67;;;21.70;60.30;;;;;;5057203;28;20474;-91
2023/04/22 09:47:18;;;;;;;6.20;2.20;;;21.90;57.40;;;;;;5076744;28;20543;-93
2023/04/22 09:49:51;;;;;;;5.93;2.47;;;22.00;58.90;;;;;;5078235;28;20918;-90
2023/04/22 09:52:25;;;;;;;6.20;2.53;;;22.20;58.30;;;;;;5057327;28;20559;-86
2023/04/22 09:54:54;;;;;;;5.50;2.23;;;22.30;57.20;;;;;;5053094;28;20505;-86
2023/04/22 09:57:21;;;;;;;7.77;2.40;;;22.50;60.10;;;;;;5054461;28;20477;-91
2023/04/22 09:59:51;;;;;;;4.93;2.13;;;22.80;62.90;;;;;;5060614;28;20558;-86
2023/04/22 10:02:19;;;;;;;8.20;2.63;;;23.10;56.20;;;;;;5051375;28;20491;-83
2023/04/22 10:04:47;;;;;;;5.50;2.20;;;23.60;49.00;;;;;;5069212;28;20474;-88
2023/04/22 10:07:15;;;;;;;6.17;2.40;;;23.10;49.60;;;;;;5070881;28;20541;-84
2023/04/22 10:09:43;;;;;;;4.40;1.90;;;22.30;50.50;;;;;;5072927;28;20465;-85
2023/04/22 10:12:10;;;;;;;8.13;2.43;;;22.20;57.00;;;;;;5072004;28;20476;-82
2023/04/22 10:14:37;;;;;;;5.40;2.30;;;22.40;46.60;;;;;;5072669;28;20867;-85
2023/04/22 10:17:05;;;;;;;7.40;2.30;;;21.80;54.90;;;;;;5056490;28;20469;-83
2023/04/22 10:19:34;;;;;;;6.63;2.30;;;22.00;49.20;;;;;;5051430;28;20463;-88
2023/04/22 10:22:03;;;;;;;6.07;2.20;;;21.60;47.70;;;;;;5064298;28;20446;-86
2023/04/22 10:24:36;;;;;;;6.40;2.20;;;21.70;50.30;;;;;;5066572;28;20468;-84
2023/04/22 10:27:07;;;;;;;5.87;2.20;;;21.20;50.60;;;;;;5069686;28;20459;-85
2023/04/22 10:29:38;;;;;;;6.15;2.53;;;20.80;54.00;;;;;;5060386;28;20465;-84
2023/04/22 10:32:23;;;;;;;6.40;2.73;;;20.30;53.50;;;;;;5058458;28;20568;-86
2023/04/22 10:34:51;;;;;;;7.80;2.97;;;20.00;53.30;;;;;;5056644;28;20475;-84
2023/04/22 10:37:19;;;;;;;6.80;2.40;;;19.90;55.50;;;;;;5052296;28;20460;-85
2023/04/22 10:40:10;;;;;;;5.37;2.10;;;20.30;59.00;;;;;;5065799;28;20602;-83
2023/04/22 10:42:40;;;;;;;5.40;2.33;;;21.00;51.20;;;;;;5055104;28;20498;-86
2023/04/22 10:45:11;;;;;;;7.90;2.53;;;21.60;52.70;;;;;;5069667;28;20529;-84
2023/04/22 10:47:41;;;;;;;8.20;2.63;;;22.20;52.70;;;;;;5060096;28;20449;-86
2023/04/22 10:50:13;;;;;;;6.87;2.20;;;22.20;49.90;;;;;;5063499;28;20455;-87
2023/04/22 10:52:40;;;;;;;11.03;2.60;;;22.60;49.90;;;;;;5061601;28;20450;-85
2023/04/22 10:55:07;;;;;;;6.43;2.63;;;22.40;46.60;;;;;;5060471;28;20460;-84
2023/04/22 10:57:38;;;;;;;9.87;2.67;;;22.60;48.20;;;;;;5064931;28;20468;-84
2023/04/22 11:00:30;;;;;;;5.97;2.27;;;22.90;51.00;;;;;;5061256;28;20461;-84
2023/04/22 11:03:09;;;;;;;9.00;2.97;;;22.70;47.70;;;;;;5060029;28;21091;-85
2023/04/22 11:05:37;;;;;;;9.30;2.70;;;22.40;46.10;;;;;;5064385;28;20858;-84
2023/04/22 11:08:06;;;;;;;6.90;2.10;;;22.90;47.10;;;;;;5059867;28;21401;-83
2023/04/22 11:10:40;;;;;;;5.57;2.07;;;23.40;44.60;;;;;;5051668;28;20459;-85
2023/04/22 11:13:10;;;;;;;7.53;3.03;;;23.40;39.20;;;;;;5070090;28;20470;-83
2023/04/22 11:15:40;;;;;;;6.40;2.77;;;23.80;42.60;;;;;;5055765;28;20491;-86
2023/04/22 11:18:16;;;;;;;7.50;2.73;;;23.40;41.70;;;;;;5055134;28;20503;-85
2023/04/22 11:20:43;;;;;;;7.63;2.60;;;23.90;37.00;;;;;;5069143;28;20471;-85
2023/04/22 11:23:11;;;;;;;7.13;2.60;;;24.20;34.10;;;;;;5063500;28;20465;-87
2023/04/22 11:25:40;;;;;;;6.23;3.03;;;24.00;35.60;;;;;;5056749;28;20447;-84
2023/04/22 11:28:10;;;;;;;7.30;3.03;;;24.20;34.10;;;;;;5059042;28;20466;-87
2023/04/22 11:30:40;;;;;;;8.90;2.63;;;24.40;36.30;;;;;;5066754;28;20455;-85
2023/04/22 11:33:07;;;;;;;11.23;2.63;;;23.70;34.30;;;;;;5041132;28;20479;-86
2023/04/22 11:35:37;;;;;;;7.30;3.10;;;23.80;37.00;;;;;;5045599;28;20453;-86
2023/04/22 11:38:05;;;;;;;6.00;2.50;;;23.70;30.70;;;;;;5054577;28;21076;-86
2023/04/22 11:40:36;;;;;;;6.70;2.20;;;24.40;31.60;;;;;;5056417;28;20455;-90
2023/04/22 11:43:05;;;;;;;7.13;2.60;;;24.50;30.20;;;;;;5055919;28;20481;-93
2023/04/22 11:45:34;;;;;;;5.93;2.03;;;24.50;30.40;;;;;;5058278;28;20451;-86
2023/04/22 11:53:25;;;;;;;5.73;2.63;;;23.90;29.80;;;;;;5081119;22;20487;-86
2023/04/22 11:55:52;;;;;;;5.73;2.30;;;24.40;30.90;;;;;;5034677;28;20479;-86
2023/04/22 11:58:23;;;;;;;8.33;3.10;;;24.10;29.50;;;;;;5034414;28;20924;-85
2023/04/22 12:00:52;;;;;;;6.93;2.67;;;24.10;30.00;;;;;;5033368;28;20463;-82
2023/04/22 12:03:22;;;;;;;6.80;2.90;;;24.40;29.20;;;;;;5033621;28;20214;-80
2023/04/22 12:05:52;;;;;;;5.80;2.47;;;24.30;30.00;;;;;;5030606;28;20505;-83
2023/04/22 12:08:26;;;;;;;6.20;2.30;;;24.30;30.00;;;;;;5027215;28;20547;-81
2023/04/22 12:10:55;;;;;;;6.33;2.67;;;24.20;30.00;;;;;;5022980;28;20960;-81
2023/04/22 12:13:25;;;;;;;6.80;2.87;;;23.50;30.30;;;;;;5034200;28;20475;-80
2023/04/22 12:15:55;;;;;;;5.80;2.57;;;23.00;33.40;;;;;;5032936;28;20451;-81
2023/04/22 12:18:30;;;;;;;6.00;3.03;;;22.80;34.60;;;;;;5033451;28;21314;-80
2023/04/22 12:21:01;;;;;;;5.60;2.33;;;22.50;35.60;;;;;;5034241;28;20454;-80
2023/04/22 12:23:28;;;;;;;6.97;2.53;;;22.40;37.50;;;;;;5034391;28;20468;-80
2023/04/22 12:25:55;;;;;;;6.13;2.87;;;22.30;40.50;;;;;;5033353;28;20501;-80
2023/04/22 12:28:22;;;;;;;6.20;2.90;;;22.80;37.90;;;;;;5033358;28;20446;-80
2023/04/22 12:30:48;;;;;;;5.77;2.80;;;22.80;35.80;;;;;;5033754;28;20541;-80
2023/04/22 12:33:15;;;;;;;5.50;2.60;;;22.40;37.50;;;;;;5033044;28;20472;-80
2023/04/22 12:35:45;;;;;;;6.00;2.63;;;22.00;40.60;;;;;;5033876;28;20451;-80
2023/04/22 12:38:12;;;;;;;7.13;2.20;;;21.70;41.70;;;;;;5033950;28;20481;-80
2023/04/22 12:40:39;;;;;;;7.03;2.70;;;21.10;42.80;;;;;;5033162;28;20455;-80